createdAt,value
2019-04-22T00:02:05.803Z,101347.41
2019-04-22T00:04:49.828Z,101350.22
2019-04-22T00:07:38.894Z,101345.25
2019-04-22T00:10:13.388Z,101344.70
2019-04-22T00:12:48.661Z,101339.84
2019-04-22T00:15:15.206Z,101341.04
2019-04-22T00:18:00.300Z,101351.91
2019-04-22T00:20:32.174Z,101351.44
2019-04-22T00:23:04.071Z,101349.13
2019-04-22T00:25:45.949Z,101347.80
2019-04-22T00:28:19.928Z,101346.88
2019-04-22T00:30:47.140Z,101345.91
2019-04-22T00:33:29.086Z,101353.33
2019-04-22T00:36:02.749Z,101352.78
2019-04-22T00:38:42.042Z,101355.42
2019-04-22T00:41:16.673Z,101357.50
2019-04-22T00:43:49.762Z,101357.46
2019-04-22T00:46:25.109Z,101360.00
2019-04-22T00:49:49.088Z,101355.59
2019-04-22T00:51:34.389Z,101354.12
2019-04-22T00:54:07.293Z,101361.07
2019-04-22T00:56:45.498Z,101359.08
2019-04-22T00:59:14.456Z,101359.33
2019-04-22T01:01:54.405Z,101361.48
2019-04-22T01:04:31.585Z,101362.80
2019-04-22T01:06:57.514Z,101360.37
2019-04-22T01:09:41.852Z,101359.30
2019-04-22T01:12:13.842Z,101357.90
2019-04-22T01:14:51.955Z,101355.10
2019-04-22T01:17:19.361Z,101358.48
2019-04-22T01:20:04.468Z,101357.41
2019-04-22T01:22:26.727Z,101361.66
2019-04-22T01:25:08.332Z,101363.67
2019-04-22T01:27:41.571Z,101368.72
2019-04-22T01:30:13.958Z,101367.25
2019-04-22T01:32:40.011Z,101362.81
2019-04-22T01:35:26.103Z,101363.66
2019-04-22T01:38:01.648Z,101364.44
2019-04-22T01:40:50.822Z,101363.92
2019-04-22T01:43:26.896Z,101366.39
2019-04-22T01:45:56.221Z,101366.75
2019-04-22T01:48:32.588Z,101367.53
2019-04-22T01:51:02.318Z,101365.17
2019-04-22T01:53:43.040Z,101371.17
2019-04-22T01:56:15.859Z,101370.27
2019-04-22T01:58:38.151Z,101374.09
2019-04-22T02:01:22.142Z,101368.48
2019-04-22T02:04:01.326Z,101366.44
2019-04-22T02:06:36.380Z,101371.75
2019-04-22T02:09:09.451Z,101368.06
2019-04-22T02:11:48.724Z,101373.68
2019-04-22T02:14:20.346Z,101372.63
2019-04-22T02:19:33.468Z,101372.77
2019-04-22T02:22:01.673Z,101364.39
2019-04-22T02:24:41.160Z,101363.03
2019-04-22T02:27:15.025Z,101368.16
2019-04-22T02:32:41.624Z,101363.52
2019-04-22T02:35:07.654Z,101365.97
2019-04-22T02:37:32.292Z,101365.55
2019-04-22T02:40:09.196Z,101367.53
2019-04-22T02:42:35.160Z,101365.58
2019-04-22T02:45:07.637Z,101362.37
2019-04-22T02:47:51.522Z,101363.67
2019-04-22T02:50:20.776Z,101362.67
2019-04-22T02:53:01.136Z,101361.77
2019-04-22T02:55:37.041Z,101364.70
2019-04-22T02:58:06.240Z,101362.84
2019-04-22T03:00:44.371Z,101363.21
2019-04-22T03:03:31.711Z,101364.16
2019-04-22T03:06:07.362Z,101366.89
2019-04-22T03:08:34.206Z,101363.62
2019-04-22T03:18:55.601Z,101364.16
2019-04-22T03:21:17.964Z,101365.85
2019-04-22T03:24:11.411Z,101365.74
2019-04-22T03:26:32.058Z,101366.44
2019-04-22T03:29:04.770Z,101369.68
2019-04-22T03:32:31.970Z,101362.61
2019-04-22T03:42:09.921Z,101381.58
2019-04-22T03:45:02.778Z,101383.22
2019-04-22T03:47:48.078Z,101384.70
2019-04-22T03:50:15.822Z,101378.20
2019-04-22T03:52:27.845Z,101376.75
2019-04-22T03:55:07.720Z,101375.45
2019-04-22T04:00:32.559Z,101372.14
2019-04-22T04:03:16.026Z,101374.41
2019-04-22T04:05:39.518Z,101369.18
2019-04-22T04:10:40.224Z,101363.17
2019-04-22T04:13:19.694Z,101362.36
2019-04-22T04:15:38.577Z,101353.01
2019-04-22T04:18:30.854Z,101355.53
2019-04-22T04:21:18.788Z,101365.89
2019-04-22T04:24:01.365Z,101360.70
2019-04-22T04:26:42.494Z,101369.50
2019-04-22T04:31:27.333Z,101357.85
2019-04-22T04:33:54.253Z,101362.45
2019-04-22T04:36:32.244Z,101357.73
2019-04-22T04:39:00.563Z,101356.08
2019-04-22T04:41:42.439Z,101360.41
2019-04-22T04:44:42.039Z,101367.20
2019-04-22T04:46:49.693Z,101368.50
2019-04-22T04:52:19.322Z,101375.59
2019-04-22T04:54:35.934Z,101378.14
2019-04-22T04:57:23.932Z,101382.85
2019-04-22T05:00:09.965Z,101377.84
2019-04-22T05:07:27.708Z,101377.08
2019-04-22T05:10:04.159Z,101374.64
2019-04-22T05:15:13.342Z,101372.66
2019-04-22T05:20:28.962Z,101363.97
2019-04-22T05:22:44.802Z,101366.69
2019-04-22T05:25:25.205Z,101366.16
2019-04-22T05:27:55.569Z,101369.94
2019-04-22T05:33:03.006Z,101371.04
2019-04-22T05:35:38.987Z,101373.16
2019-04-22T05:38:20.093Z,101379.76
2019-04-22T05:40:44.109Z,101377.72
2019-04-22T05:43:21.565Z,101378.76
2019-04-22T05:45:58.851Z,101382.91
2019-04-22T05:48:34.276Z,101391.59
2019-04-22T05:51:25.716Z,101389.49
2019-04-22T05:53:41.957Z,101393.01
2019-04-22T05:56:34.228Z,101392.31
2019-04-22T06:01:48.808Z,101392.56
2019-04-22T06:04:11.665Z,101400.52
2019-04-22T06:06:42.973Z,101398.50
2019-04-22T06:09:24.561Z,101394.23
2019-04-22T06:11:57.079Z,101394.73
2019-04-22T06:14:40.379Z,101389.03
2019-04-22T06:17:19.935Z,101396.79
2019-04-22T06:19:54.179Z,101395.98
2019-04-22T06:22:37.149Z,101393.36
2019-04-22T06:25:00.994Z,101391.88
2019-04-22T06:27:41.668Z,101390.83
2019-04-22T06:30:17.279Z,101388.23
2019-04-22T06:32:47.195Z,101396.19
2019-04-22T06:35:29.927Z,101401.88
2019-04-22T06:38:15.995Z,101391.38
2019-04-22T06:40:32.852Z,101396.16
2019-04-22T06:43:09.174Z,101393.63
2019-04-22T06:45:41.593Z,101396.44
2019-04-22T06:48:19.654Z,101401.34
2019-04-22T06:53:25.614Z,101399.33
2019-04-22T06:56:00.520Z,101394.72
2019-04-22T06:58:36.646Z,101397.58
2019-04-22T07:01:12.574Z,101392.84
2019-04-22T07:03:50.632Z,101393.41
2019-04-22T07:06:50.797Z,101394.59
2019-04-22T07:09:15.732Z,101388.16
2019-04-22T07:11:26.575Z,101395.67
2019-04-22T07:14:23.851Z,101394.38
2019-04-22T07:16:37.851Z,101384.00
2019-04-22T07:19:15.137Z,101391.15
2019-04-22T07:21:50.905Z,101392.19
2019-04-22T07:27:00.228Z,101397.29
2019-04-22T07:29:32.716Z,101401.66
2019-04-22T07:32:06.778Z,101393.00
2019-04-22T07:35:03.775Z,101408.28
2019-04-22T07:37:28.186Z,101405.62
2019-04-22T07:39:54.971Z,101409.44
2019-04-22T07:45:08.613Z,101413.90
2019-04-22T07:47:38.434Z,101411.91
2019-04-22T07:50:17.017Z,101412.31
2019-04-22T07:52:46.700Z,101409.63
2019-04-22T07:55:25.571Z,101413.22
2019-04-22T07:58:02.355Z,101408.45
2019-04-22T08:00:35.716Z,101408.88
2019-04-22T08:03:12.092Z,101408.98
2019-04-22T08:05:52.117Z,101402.95
2019-04-22T08:11:10.313Z,101409.41
2019-04-22T08:13:34.164Z,101405.50
2019-04-22T08:16:16.439Z,101416.90
2019-04-22T08:18:47.532Z,101416.95
2019-04-22T08:21:23.753Z,101426.14
2019-04-22T08:24:01.520Z,101418.73
2019-04-22T08:26:43.167Z,101416.25
2019-04-22T08:29:14.557Z,101426.13
2019-04-22T08:31:49.130Z,101417.53
2019-04-22T08:34:20.935Z,101425.81
2019-04-22T08:37:34.265Z,101430.70
2019-04-22T08:39:35.888Z,101426.70
2019-04-22T08:42:23.459Z,101432.72
2019-04-22T08:50:16.474Z,101431.59
2019-04-22T08:52:36.871Z,101433.23
2019-04-22T08:55:22.992Z,101432.12
2019-04-22T08:58:12.974Z,101439.75
2019-04-22T09:00:34.781Z,101448.14
2019-04-22T09:03:04.447Z,101447.33
2019-04-22T09:05:57.821Z,101447.83
2019-04-22T09:08:35.761Z,101449.99
2019-04-22T09:11:08.172Z,101460.69
2019-04-22T09:14:04.209Z,101457.92
2019-04-22T09:16:39.852Z,101443.58
2019-04-22T09:19:12.603Z,101457.05
2019-04-22T09:21:54.535Z,101458.16
2019-04-22T09:24:24.901Z,101452.84
2019-04-22T09:27:03.512Z,101451.96
2019-04-22T09:32:18.668Z,101449.32
2019-04-22T09:34:51.702Z,101459.42
2019-04-22T09:40:04.614Z,101453.95
2019-04-22T09:42:39.339Z,101457.08
2019-04-22T09:45:13.243Z,101455.57
2019-04-22T09:48:08.788Z,101449.64
2019-04-22T09:50:42.092Z,101451.81
2019-04-22T09:53:17.660Z,101448.78
2019-04-22T09:55:53.163Z,101443.37
2019-04-22T09:58:42.622Z,101445.67
2019-04-22T10:01:22.615Z,101438.64
2019-04-22T10:06:35.434Z,101435.47
2019-04-22T10:11:55.106Z,101432.05
2019-04-22T10:14:55.763Z,101433.81
2019-04-22T10:17:37.982Z,101426.44
2019-04-22T10:20:15.096Z,101431.27
2019-04-22T10:22:54.309Z,101417.88
2019-04-22T10:25:32.734Z,101419.25
2019-04-22T10:28:09.234Z,101422.11
2019-04-22T10:33:11.680Z,101422.58
2019-04-22T10:35:28.722Z,101437.75
2019-04-22T10:38:04.177Z,101430.15
2019-04-22T10:40:46.830Z,101433.16
2019-04-22T10:43:21.198Z,101420.17
2019-04-22T10:49:10.384Z,101422.52
2019-04-22T10:51:48.726Z,101427.34
2019-04-22T10:54:23.554Z,101433.01
2019-04-22T10:56:57.450Z,101429.19
2019-04-22T10:59:36.542Z,101422.22
2019-04-22T11:02:17.360Z,101420.92
2019-04-22T11:05:04.115Z,101417.25
2019-04-22T11:07:49.193Z,101406.52
2019-04-22T11:10:34.599Z,101410.23
2019-04-22T11:13:05.112Z,101415.41
2019-04-22T11:15:44.487Z,101405.30
2019-04-22T11:18:23.642Z,101411.66
2019-04-22T11:20:58.125Z,101409.77
2019-04-22T11:23:32.375Z,101403.73
2019-04-22T11:26:10.117Z,101405.14
2019-04-22T11:28:47.644Z,101400.67
2019-04-22T11:31:26.403Z,101408.09
2019-04-22T11:34:11.108Z,101411.51
2019-04-22T11:36:44.988Z,101416.51
2019-04-22T11:39:19.735Z,101399.72
2019-04-22T11:42:12.133Z,101415.92
2019-04-22T11:44:45.441Z,101415.70
2019-04-22T11:47:21.470Z,101408.11
2019-04-22T11:50:05.988Z,101412.53
2019-04-22T11:52:40.560Z,101412.66
2019-04-22T11:55:17.033Z,101399.02
2019-04-22T11:58:10.760Z,101401.09
2019-04-22T12:00:49.938Z,101406.45
2019-04-22T12:03:27.174Z,101394.41
2019-04-22T12:06:04.041Z,101378.88
2019-04-22T12:11:53.909Z,101393.34
2019-04-22T12:14:27.741Z,101383.92
2019-04-22T12:17:01.807Z,101380.86
2019-04-22T12:19:38.206Z,101375.56
2019-04-22T12:22:13.189Z,101379.75
2019-04-22T12:24:48.152Z,101379.39
2019-04-22T12:27:24.025Z,101380.21
2019-04-22T12:29:56.841Z,101375.50
2019-04-22T12:32:31.764Z,101370.77
2019-04-22T12:35:07.350Z,101357.20
2019-04-22T12:37:49.936Z,101370.67
2019-04-22T12:40:30.098Z,101377.55
2019-04-22T12:42:55.622Z,101365.02
2019-04-22T12:45:30.041Z,101357.91
2019-04-22T12:48:04.192Z,101359.58
2019-04-22T12:50:40.797Z,101360.58
2019-04-22T12:53:16.686Z,101358.15
2019-04-22T12:55:48.104Z,101353.75
2019-04-22T12:58:23.421Z,101345.71
2019-04-22T13:00:58.941Z,101338.51
2019-04-22T13:03:36.149Z,101337.77
2019-04-22T13:06:09.938Z,101345.69
2019-04-22T13:08:45.546Z,101333.50
2019-04-22T13:11:23.959Z,101325.97
2019-04-22T13:13:54.840Z,101326.47
2019-04-22T13:16:33.368Z,101329.67
2019-04-22T13:19:14.997Z,101332.09
2019-04-22T13:21:54.594Z,101324.98
2019-04-22T13:24:30.046Z,101321.99
2019-04-22T13:27:10.939Z,101317.64
2019-04-22T13:29:46.563Z,101323.09
2019-04-22T13:32:20.611Z,101318.34
2019-04-22T13:34:57.180Z,101315.73
2019-04-22T13:37:28.714Z,101315.66
2019-04-22T13:40:03.425Z,101315.30
2019-04-22T13:42:37.505Z,101314.86
2019-04-22T13:45:13.397Z,101313.45
2019-04-22T13:48:02.871Z,101302.34
2019-04-22T13:51:05.862Z,101309.27
2019-04-22T13:53:37.723Z,101308.03
2019-04-22T13:55:56.606Z,101299.25
2019-04-22T13:58:18.453Z,101290.22
2019-04-22T14:00:42.555Z,101291.42
2019-04-22T14:03:41.613Z,101296.78
2019-04-22T14:06:20.569Z,101289.84
2019-04-22T14:08:55.580Z,101297.11
2019-04-22T14:11:36.711Z,101291.59
2019-04-22T14:14:06.887Z,101296.70
2019-04-22T14:16:40.809Z,101293.82
2019-04-22T14:19:18.386Z,101284.32
2019-04-22T14:21:51.642Z,101287.42
2019-04-22T14:24:25.982Z,101292.66
2019-04-22T14:27:17.913Z,101282.45
2019-04-22T14:29:35.551Z,101270.41
2019-04-22T14:32:19.357Z,101254.22
2019-04-22T14:34:49.208Z,101274.30
2019-04-22T14:37:22.472Z,101263.63
2019-04-22T14:39:57.820Z,101251.30
2019-04-22T14:42:52.244Z,101270.13
2019-04-22T14:45:28.750Z,101269.78
2019-04-22T14:48:07.744Z,101268.26
2019-04-22T14:50:37.235Z,101266.49
2019-04-22T14:53:19.397Z,101264.09
2019-04-22T14:55:29.599Z,101264.53
2019-04-22T14:58:01.314Z,101249.65
2019-04-22T15:00:38.180Z,101258.38
2019-04-22T15:03:11.348Z,101251.97
2019-04-22T15:05:46.167Z,101246.82
2019-04-22T15:08:19.390Z,101243.34
2019-04-22T15:10:53.820Z,101247.72
2019-04-22T15:13:27.448Z,101238.83
2019-04-22T15:16:20.115Z,101233.95
2019-04-22T15:18:58.145Z,101230.44
2019-04-22T15:21:32.366Z,101224.52
2019-04-22T15:24:26.876Z,101230.92
2019-04-22T15:27:01.281Z,101223.00
2019-04-22T15:29:35.689Z,101224.37
2019-04-22T15:32:09.438Z,101226.48
2019-04-22T15:34:44.463Z,101214.30
2019-04-22T15:37:20.351Z,101213.73
2019-04-22T15:39:56.657Z,101216.26
2019-04-22T15:42:35.553Z,101213.42
2019-04-22T15:45:05.930Z,101214.16
2019-04-22T15:47:41.788Z,101212.48
2019-04-22T15:50:16.204Z,101219.08
2019-04-22T15:52:53.036Z,101216.37
2019-04-22T15:55:24.652Z,101210.77
2019-04-22T15:58:05.977Z,101214.27
2019-04-22T16:00:54.126Z,101219.59
2019-04-22T16:03:24.795Z,101215.59
2019-04-22T16:06:02.024Z,101218.17
2019-04-22T16:08:47.909Z,101213.69
2019-04-22T16:11:24.842Z,101204.84
2019-04-22T16:13:58.187Z,101209.52
2019-04-22T16:16:34.744Z,101208.19
2019-04-22T16:19:08.723Z,101208.41
2019-04-22T16:21:53.620Z,101197.89
2019-04-22T16:24:40.437Z,101207.27
2019-04-22T16:27:18.643Z,101192.95
2019-04-22T16:29:51.878Z,101195.86
2019-04-22T16:32:25.601Z,101198.11
2019-04-22T16:34:59.059Z,101195.56
2019-04-22T16:37:32.952Z,101190.13
2019-04-22T16:40:09.179Z,101186.33
2019-04-22T16:42:47.731Z,101192.30
2019-04-22T16:45:19.899Z,101200.38
2019-04-22T16:47:57.876Z,101197.81
2019-04-22T16:50:35.026Z,101205.92
2019-04-22T16:53:14.787Z,101199.39
2019-04-22T16:55:50.481Z,101196.98
2019-04-22T16:58:25.218Z,101200.55
2019-04-22T17:01:00.391Z,101192.66
2019-04-22T17:03:52.349Z,101199.77
2019-04-22T17:06:31.826Z,101198.88
2019-04-22T17:09:06.719Z,101204.20
2019-04-22T17:11:40.281Z,101202.81
2019-04-22T17:14:17.060Z,101207.23
2019-04-22T17:16:48.576Z,101205.91
2019-04-22T17:19:21.763Z,101208.63
2019-04-22T17:21:55.302Z,101206.43
2019-04-22T17:24:29.986Z,101205.22
2019-04-22T17:27:04.545Z,101208.38
2019-04-22T17:29:38.932Z,101209.36
2019-04-22T17:32:21.177Z,101216.99
2019-04-22T17:35:24.234Z,101218.77
2019-04-22T17:38:10.088Z,101216.27
2019-04-22T17:40:58.151Z,101215.02
2019-04-22T17:43:52.342Z,101225.30
2019-04-22T17:46:19.679Z,101228.53
2019-04-22T17:49:21.886Z,101217.92
2019-04-22T17:52:09.081Z,101229.95
2019-04-22T17:54:48.852Z,101227.37
2019-04-22T17:57:35.764Z,101230.09
2019-04-22T18:00:21.718Z,101231.50
2019-04-22T18:02:48.431Z,101236.03
2019-04-22T18:05:33.099Z,101240.07
2019-04-22T18:08:20.461Z,101250.76
2019-04-22T18:10:58.659Z,101245.94
2019-04-22T18:13:44.355Z,101251.72
2019-04-22T18:16:27.582Z,101255.77
2019-04-22T18:19:05.546Z,101255.38
2019-04-22T18:21:40.728Z,101254.98
2019-04-22T18:25:04.861Z,101259.02
2019-04-22T18:28:09.125Z,101257.74
2019-04-22T18:30:46.636Z,101262.23
2019-04-22T18:33:47.821Z,101263.57
2019-04-22T18:36:36.059Z,101262.28
2019-04-22T18:39:33.461Z,101263.67
2019-04-22T18:42:06.000Z,101265.92
2019-04-22T18:45:30.040Z,101261.55
2019-04-22T18:47:48.893Z,101266.01
2019-04-22T18:50:45.318Z,101269.59
2019-04-22T18:53:44.612Z,101265.64
2019-04-22T18:56:27.205Z,101273.20
2019-04-22T18:58:59.580Z,101274.56
2019-04-22T19:02:19.975Z,101279.02
2019-04-22T19:05:12.159Z,101279.48
2019-04-22T19:08:07.417Z,101284.37
2019-04-22T19:10:43.117Z,101281.72
2019-04-22T19:13:37.740Z,101285.28
2019-04-22T19:15:54.303Z,101285.31
2019-04-22T19:18:32.385Z,101286.66
2019-04-22T19:21:02.685Z,101285.78
2019-04-22T19:23:33.227Z,101286.22
2019-04-22T19:26:06.064Z,101286.68
2019-04-22T19:28:48.317Z,101286.67
2019-04-22T19:31:21.913Z,101280.92
2019-04-22T19:34:01.619Z,101277.86
2019-04-22T19:36:36.401Z,101284.47
2019-04-22T19:39:07.992Z,101276.97
2019-04-22T19:41:54.286Z,101279.64
2019-04-22T19:44:25.945Z,101285.80
2019-04-22T19:47:18.347Z,101289.80
2019-04-22T19:49:48.387Z,101287.59
2019-04-22T19:52:24.374Z,101288.48
2019-04-22T19:55:01.846Z,101286.73
2019-04-22T19:57:52.329Z,101292.05
2019-04-22T20:04:19.261Z,101293.83
2019-04-22T20:06:53.405Z,101296.47
2019-04-22T20:09:39.804Z,101301.34
2019-04-22T20:12:13.466Z,101292.52
2019-04-22T20:14:48.081Z,101292.50
2019-04-22T20:17:29.646Z,101300.91
2019-04-22T20:20:18.182Z,101296.92
2019-04-22T20:22:32.769Z,101299.13
2019-04-22T20:24:59.996Z,101296.03
2019-04-22T20:27:47.403Z,101299.14
2019-04-22T20:30:23.457Z,101300.00
2019-04-22T20:32:56.657Z,101294.25
2019-04-22T20:35:40.125Z,101298.69
2019-04-22T20:38:14.853Z,101300.01
2019-04-22T20:40:42.524Z,101303.08
2019-04-22T20:43:28.917Z,101297.77
2019-04-22T20:46:00.521Z,101296.90
2019-04-22T20:48:40.465Z,101301.28
2019-04-22T20:51:12.480Z,101296.87
2019-04-22T20:53:47.933Z,101297.74
2019-04-22T20:56:21.920Z,101293.34
2019-04-22T20:58:55.764Z,101295.98
2019-04-22T21:01:34.435Z,101288.92
2019-04-22T21:03:56.649Z,101290.20
2019-04-22T21:06:42.773Z,101295.01
2019-04-22T21:09:18.073Z,101295.47
2019-04-22T21:11:49.410Z,101299.41
2019-04-22T21:14:24.450Z,101291.47
2019-04-22T21:17:03.494Z,101290.16
2019-04-22T21:19:46.455Z,101283.52
2019-04-22T21:22:18.129Z,101295.02
2019-04-22T21:24:46.041Z,101294.98
2019-04-22T21:27:44.882Z,101298.08
2019-04-22T21:29:49.254Z,101298.11
2019-04-22T21:32:34.382Z,101298.98
2019-04-22T21:35:18.253Z,101309.52
2019-04-22T21:37:42.975Z,101307.31
2019-04-22T21:40:26.104Z,101304.25
2019-04-22T21:42:59.699Z,101310.86
2019-04-22T21:45:25.274Z,101308.20
2019-04-22T21:50:48.263Z,101306.83
2019-04-22T21:53:22.757Z,101307.27
2019-04-22T21:56:04.337Z,101306.78
2019-04-22T21:58:31.858Z,101312.03
2019-04-22T22:01:33.588Z,101310.70
2019-04-22T22:03:55.811Z,101308.48
2019-04-22T22:06:21.820Z,101304.96
2019-04-22T22:09:02.536Z,101302.74
2019-04-22T22:11:33.885Z,101304.93
2019-04-22T22:14:11.689Z,101303.12
2019-04-22T22:16:42.632Z,101307.95
2019-04-22T22:19:30.185Z,101303.55
2019-04-22T22:22:05.956Z,101300.87
2019-04-22T22:24:41.497Z,101301.28
2019-04-22T22:27:11.088Z,101295.97
2019-04-22T22:32:26.144Z,101297.27
2019-04-22T22:34:59.723Z,101299.85
2019-04-22T22:37:17.025Z,101292.33
2019-04-22T22:39:55.465Z,101290.98
2019-04-22T22:42:30.293Z,101290.94
2019-04-22T22:45:07.849Z,101282.06
2019-04-22T22:47:44.200Z,101281.63
2019-04-22T22:50:26.030Z,101282.45
2019-04-22T22:53:15.441Z,101285.46
2019-04-22T22:55:35.851Z,101284.55
2019-04-22T22:58:10.408Z,101279.25
2019-04-22T23:00:41.139Z,101274.36
2019-04-22T23:05:57.450Z,101277.78
2019-04-22T23:08:34.386Z,101284.86
2019-04-22T23:11:05.344Z,101283.06
2019-04-22T23:13:44.240Z,101277.30
2019-04-22T23:16:04.941Z,101276.87
2019-04-22T23:18:30.219Z,101281.66
2019-04-22T23:21:08.239Z,101277.72
2019-04-22T23:24:00.777Z,101279.45
2019-04-22T23:26:40.758Z,101269.28
2019-04-22T23:29:24.875Z,101267.95
2019-04-22T23:32:00.669Z,101272.32
2019-04-22T23:34:32.695Z,101271.81
2019-04-22T23:37:39.628Z,101267.84
2019-04-22T23:40:26.003Z,101273.11
2019-04-22T23:42:53.022Z,101268.21
2019-04-22T23:45:30.877Z,101257.61
2019-04-22T23:47:56.720Z,101262.47
2019-04-22T23:50:41.474Z,101261.14
2019-04-22T23:53:47.975Z,101254.56
2019-04-22T23:56:07.839Z,101250.09
